createdAt,value
2023-05-05T00:01:08.790Z,9.68
2023-05-05T00:03:36.463Z,11.25
2023-05-05T00:06:05.433Z,10.93
2023-05-05T00:08:33.393Z,10.45
2023-05-05T00:11:02.054Z,11.83
2023-05-05T00:13:29.751Z,9.07
2023-05-05T00:15:57.456Z,9.25
2023-05-05T00:18:24.665Z,10.45
2023-05-05T00:20:52.330Z,10.80
2023-05-05T00:23:20.486Z,10.00
2023-05-05T00:25:47.751Z,10.07
2023-05-05T00:28:16.536Z,9.07
2023-05-05T00:30:44.045Z,10.20
2023-05-05T00:33:11.429Z,9.18
2023-05-05T00:35:38.697Z,10.47
2023-05-05T00:38:07.274Z,10.77
2023-05-05T00:40:34.653Z,11.35
2023-05-05T00:43:02.746Z,9.52
2023-05-05T00:45:31.883Z,11.40
2023-05-05T00:48:00.736Z,10.73
2023-05-05T00:50:29.607Z,12.18
2023-05-05T00:53:01.106Z,11.85
2023-05-05T00:55:28.793Z,11.52
2023-05-05T00:57:56.779Z,11.82
2023-05-05T01:00:24.221Z,12.77
2023-05-05T01:02:53.183Z,11.40
2023-05-05T01:05:22.967Z,13.68
2023-05-05T01:08:03.034Z,14.98
2023-05-05T01:10:36.560Z,13.52
2023-05-05T01:13:20.733Z,13.27
2023-05-05T01:15:55.153Z,13.57
2023-05-05T01:18:32.293Z,12.68
2023-05-05T01:21:07.122Z,14.07
2023-05-05T01:23:55.727Z,11.95
2023-05-05T01:26:51.365Z,12.07
2023-05-05T01:29:41.434Z,11.63
2023-05-05T01:32:12.996Z,11.30
2023-05-05T01:34:45.420Z,9.38
2023-05-05T01:37:18.421Z,10.65
2023-05-05T01:39:50.228Z,10.83
2023-05-05T01:42:18.790Z,11.90
2023-05-05T01:44:48.324Z,11.63
2023-05-05T01:47:19.592Z,10.73
2023-05-05T01:49:48.093Z,11.77
2023-05-05T01:52:16.318Z,10.77
2023-05-05T01:54:45.520Z,10.20
2023-05-05T01:57:14.711Z,10.25
2023-05-05T01:59:42.423Z,11.13
2023-05-05T02:02:11.324Z,10.65
2023-05-05T02:04:43.620Z,11.45
2023-05-05T02:07:12.696Z,11.32
2023-05-05T02:09:42.529Z,11.27
2023-05-05T02:12:10.713Z,10.85
2023-05-05T02:14:39.024Z,10.57
2023-05-05T02:17:06.283Z,10.30
2023-05-05T02:19:38.857Z,10.68
2023-05-05T02:22:08.131Z,11.07
2023-05-05T02:24:35.839Z,12.05
2023-05-05T02:27:06.320Z,10.27
2023-05-05T02:29:36.595Z,10.27
2023-05-05T02:32:09.693Z,10.30
2023-05-05T02:34:39.960Z,9.95
2023-05-05T02:37:12.784Z,9.35
2023-05-05T02:39:45.245Z,10.45
2023-05-05T02:42:18.434Z,9.53
2023-05-05T02:44:46.489Z,9.70
2023-05-05T02:47:13.877Z,10.25
2023-05-05T02:49:41.206Z,10.23
2023-05-05T02:52:09.969Z,10.52
2023-05-05T02:54:37.582Z,13.53
2023-05-05T02:57:04.843Z,10.38
2023-05-05T02:59:38.249Z,11.90
2023-05-05T03:02:16.958Z,10.90
2023-05-05T03:04:49.417Z,9.35
2023-05-05T03:07:25.962Z,9.93
2023-05-05T03:10:01.095Z,9.43
2023-05-05T03:12:37.663Z,10.82
2023-05-05T03:15:08.284Z,12.07
2023-05-05T03:17:36.944Z,11.00
2023-05-05T03:20:06.210Z,10.50
2023-05-05T03:22:37.393Z,11.50
2023-05-05T03:25:06.298Z,11.45
2023-05-05T03:27:33.578Z,11.23
2023-05-05T03:30:02.643Z,11.13
2023-05-05T03:32:30.996Z,11.17
2023-05-05T03:34:58.284Z,11.70
2023-05-05T03:37:25.460Z,10.50
2023-05-05T03:39:54.021Z,12.50
2023-05-05T03:42:21.266Z,10.60
2023-05-05T03:44:48.538Z,9.93
2023-05-05T03:47:15.708Z,13.68
2023-05-05T03:49:42.917Z,10.63
2023-05-05T03:52:10.260Z,14.25
2023-05-05T03:54:37.832Z,10.63
2023-05-05T03:57:06.526Z,11.07
2023-05-05T03:59:33.835Z,10.68
2023-05-05T04:02:01.557Z,11.02
2023-05-05T04:04:29.095Z,13.35
2023-05-05T04:06:56.408Z,11.07
2023-05-05T04:09:23.589Z,11.83
2023-05-05T04:11:51.234Z,11.80
2023-05-05T04:14:20.033Z,10.93
2023-05-05T04:16:47.222Z,12.32
2023-05-05T04:19:14.433Z,12.32
2023-05-05T04:21:41.786Z,10.93
2023-05-05T04:24:09.734Z,11.88
2023-05-05T04:26:37.339Z,13.70
2023-05-05T04:29:07.043Z,16.02
2023-05-05T04:31:35.681Z,14.70
2023-05-05T04:34:03.008Z,16.57
2023-05-05T04:36:30.167Z,18.75
2023-05-05T04:38:57.497Z,16.65
2023-05-05T04:41:24.743Z,18.77
2023-05-05T04:43:51.953Z,15.52
2023-05-05T04:46:19.230Z,15.77
2023-05-05T04:48:47.887Z,15.38
2023-05-05T04:51:15.235Z,13.93
2023-05-05T04:53:42.612Z,12.23
2023-05-05T04:56:09.831Z,13.85
2023-05-05T04:58:37.217Z,16.33
2023-05-05T05:01:05.062Z,15.50
2023-05-05T05:03:32.493Z,11.15
2023-05-05T05:06:01.189Z,12.27
2023-05-05T05:08:28.754Z,12.77
2023-05-05T05:10:56.234Z,12.53
2023-05-05T05:13:23.829Z,11.55
2023-05-05T05:15:51.396Z,11.18
2023-05-05T05:18:18.662Z,11.05
2023-05-05T05:20:46.554Z,14.07
2023-05-05T05:23:15.372Z,12.43
2023-05-05T05:25:43.204Z,13.18
2023-05-05T05:28:11.140Z,13.68
2023-05-05T05:30:38.691Z,15.98
2023-05-05T05:33:06.908Z,13.65
2023-05-05T05:35:34.242Z,16.47
2023-05-05T05:38:04.161Z,14.20
2023-05-05T05:40:34.631Z,14.00
2023-05-05T05:43:03.016Z,14.50
2023-05-05T05:45:32.184Z,14.57
2023-05-05T05:48:02.437Z,14.77
2023-05-05T05:50:36.576Z,16.38
2023-05-05T05:53:03.919Z,17.23
2023-05-05T05:55:32.167Z,20.20
2023-05-05T05:58:00.959Z,17.15
2023-05-05T06:00:30.454Z,18.83
2023-05-05T06:02:57.893Z,17.10
2023-05-05T06:05:25.447Z,18.02
2023-05-05T06:07:52.796Z,17.42
2023-05-05T06:10:27.826Z,15.20
2023-05-05T06:12:55.488Z,16.10
2023-05-05T06:15:25.713Z,14.55
2023-05-05T06:17:53.266Z,14.73
2023-05-05T06:20:20.597Z,14.85
2023-05-05T06:22:47.895Z,14.68
2023-05-05T06:25:15.793Z,13.50
2023-05-05T06:27:43.396Z,13.50
2023-05-05T06:30:11.644Z,16.08
2023-05-05T06:32:40.419Z,16.23
2023-05-05T06:35:14.044Z,17.13
2023-05-05T06:37:44.367Z,15.27
2023-05-05T06:40:12.510Z,14.88
2023-05-05T06:42:39.812Z,14.75
2023-05-05T06:45:10.161Z,15.18
2023-05-05T06:47:37.618Z,13.02
2023-05-05T06:50:09.099Z,13.77
2023-05-05T06:52:36.964Z,11.55
2023-05-05T06:55:04.826Z,13.88
2023-05-05T06:57:32.132Z,12.60
2023-05-05T07:00:00.060Z,14.25
2023-05-05T07:02:27.533Z,14.77
2023-05-05T07:04:55.713Z,12.05
2023-05-05T07:07:24.461Z,12.38
2023-05-05T07:09:51.857Z,11.45
2023-05-05T07:12:19.400Z,12.65
2023-05-05T07:14:46.861Z,10.17
2023-05-05T07:17:14.124Z,10.43
2023-05-05T07:19:41.416Z,12.60
2023-05-05T07:22:08.839Z,10.52
2023-05-05T07:24:37.547Z,11.00
2023-05-05T07:27:05.256Z,9.67
2023-05-05T07:29:32.545Z,11.38
2023-05-05T07:31:59.853Z,10.88
2023-05-05T07:34:32.899Z,12.43
2023-05-05T07:37:00.197Z,10.80
2023-05-05T07:39:42.332Z,10.60
2023-05-05T07:42:11.655Z,11.68
2023-05-05T07:44:43.856Z,11.02
2023-05-05T07:47:13.472Z,11.43
2023-05-05T07:49:42.872Z,12.40
2023-05-05T07:52:12.186Z,12.40
2023-05-05T07:54:46.075Z,12.75
2023-05-05T07:57:19.467Z,12.05
2023-05-05T07:59:48.959Z,13.63
2023-05-05T08:02:18.397Z,12.43
2023-05-05T08:04:47.821Z,10.93
2023-05-05T08:07:17.028Z,13.75
2023-05-05T08:09:48.194Z,9.75
2023-05-05T08:12:19.867Z,14.68
2023-05-05T08:14:52.236Z,10.95
2023-05-05T08:17:21.852Z,10.13
2023-05-05T08:19:53.927Z,12.35
2023-05-05T08:22:34.111Z,9.93
2023-05-05T08:25:07.954Z,9.63
2023-05-05T08:27:37.445Z,8.40
2023-05-05T08:30:08.536Z,8.47
2023-05-05T08:32:36.314Z,10.05
2023-05-05T08:35:12.683Z,11.80
2023-05-05T08:37:40.102Z,13.95
2023-05-05T08:40:14.074Z,9.57
2023-05-05T08:42:47.226Z,9.07
2023-05-05T08:45:14.911Z,13.90
2023-05-05T08:47:43.549Z,14.13
2023-05-05T08:50:11.897Z,8.63
2023-05-05T08:52:41.442Z,9.35
2023-05-05T08:55:15.621Z,13.07
2023-05-05T08:57:50.963Z,8.93
2023-05-05T09:00:19.870Z,6.70
2023-05-05T09:02:47.634Z,9.57
2023-05-05T09:05:16.404Z,8.95
2023-05-05T09:07:44.426Z,10.03
2023-05-05T09:10:13.464Z,9.02
2023-05-05T09:12:45.514Z,7.47
2023-05-05T09:15:14.865Z,7.97
2023-05-05T09:20:34.720Z,9.33
2023-05-05T09:23:09.432Z,7.57
2023-05-05T09:25:38.993Z,7.32
2023-05-05T09:28:10.805Z,7.93
2023-05-05T09:30:38.719Z,8.52
2023-05-05T09:33:06.547Z,8.47
2023-05-05T09:35:51.194Z,8.82
2023-05-05T09:38:19.452Z,8.70
2023-05-05T09:40:49.361Z,8.07
2023-05-05T09:43:17.089Z,7.22
2023-05-05T09:45:44.569Z,7.77
2023-05-05T09:48:25.716Z,8.05
2023-05-05T09:50:54.039Z,9.20
2023-05-05T09:53:21.847Z,12.13
2023-05-05T09:55:57.903Z,10.05
2023-05-05T09:58:26.973Z,7.93
2023-05-05T10:00:55.312Z,10.25
2023-05-05T10:03:25.151Z,9.23
2023-05-05T10:05:54.149Z,8.88
2023-05-05T10:08:23.473Z,8.18
2023-05-05T10:10:53.353Z,8.47
2023-05-05T10:13:24.180Z,7.65
2023-05-05T10:15:53.089Z,10.43
2023-05-05T10:18:22.196Z,10.27
2023-05-05T10:20:56.014Z,8.57
2023-05-05T10:23:25.133Z,9.07
2023-05-05T10:25:59.258Z,9.60
2023-05-05T10:28:33.023Z,7.20
2023-05-05T10:31:04.237Z,14.27
2023-05-05T10:33:47.969Z,28.90
2023-05-05T10:36:16.415Z,9.10
2023-05-05T10:38:45.644Z,6.85
2023-05-05T10:41:14.300Z,17.00
2023-05-05T10:43:43.564Z,9.50
2023-05-05T10:46:11.204Z,10.98
2023-05-05T10:48:47.173Z,10.77
2023-05-05T10:51:39.436Z,7.30
2023-05-05T10:54:13.903Z,9.73
2023-05-05T10:56:43.267Z,12.10
2023-05-05T10:59:42.683Z,8.98
2023-05-05T11:02:24.315Z,6.93
2023-05-05T11:05:15.306Z,11.25
2023-05-05T11:07:43.264Z,15.65
2023-05-05T11:10:12.176Z,8.75
2023-05-05T11:13:20.004Z,6.88
2023-05-05T11:15:49.733Z,15.77
2023-05-05T11:18:36.870Z,8.05
2023-05-05T11:21:22.489Z,8.63
2023-05-05T11:23:51.370Z,10.40
2023-05-05T11:26:40.430Z,14.77
2023-05-05T11:29:10.536Z,7.70
2023-05-05T11:31:39.371Z,10.23
2023-05-05T11:34:29.298Z,14.88
2023-05-05T11:37:03.325Z,15.73
2023-05-05T11:39:42.939Z,6.53
2023-05-05T11:42:30.287Z,12.53
2023-05-05T11:45:01.509Z,10.48
2023-05-05T11:47:33.355Z,14.30
2023-05-05T11:50:17.455Z,17.38
2023-05-05T11:52:44.974Z,13.57
2023-05-05T11:55:12.338Z,7.97
2023-05-05T11:57:40.040Z,9.75
2023-05-05T12:00:09.201Z,15.02
2023-05-05T12:02:42.290Z,12.05
2023-05-05T12:05:09.862Z,15.85
2023-05-05T12:07:37.233Z,10.73
2023-05-05T12:10:07.047Z,14.13
2023-05-05T12:12:38.534Z,8.52
2023-05-05T12:15:07.130Z,6.97
2023-05-05T12:17:45.111Z,10.38
2023-05-05T12:20:13.478Z,9.70
2023-05-05T12:22:41.037Z,6.65
2023-05-05T12:25:09.272Z,9.63
2023-05-05T12:27:36.648Z,7.35
2023-05-05T12:30:15.759Z,7.40
2023-05-05T12:32:45.683Z,7.70
2023-05-05T12:35:16.114Z,14.57
2023-05-05T12:37:43.883Z,9.13
2023-05-05T12:40:47.539Z,6.93
2023-05-05T12:43:26.586Z,6.68
2023-05-05T12:46:05.768Z,8.50
2023-05-05T12:48:36.050Z,6.60
2023-05-05T12:51:20.159Z,14.43
2023-05-05T12:53:48.942Z,7.65
2023-05-05T12:56:38.776Z,6.70
2023-05-05T12:59:08.150Z,9.53
2023-05-05T13:01:36.638Z,6.57
2023-05-05T13:04:07.260Z,6.68
2023-05-05T13:06:36.203Z,6.50
2023-05-05T13:09:04.120Z,8.98
2023-05-05T13:11:36.405Z,11.40
2023-05-05T13:14:03.850Z,7.43
2023-05-05T13:16:31.355Z,9.27
2023-05-05T13:18:58.983Z,13.85
2023-05-05T13:21:28.193Z,7.68
2023-05-05T13:24:04.887Z,12.03
2023-05-05T13:26:39.664Z,10.25
2023-05-05T13:29:06.931Z,14.70
2023-05-05T13:31:34.862Z,11.43
2023-05-05T13:34:02.291Z,13.30
2023-05-05T13:36:33.316Z,8.13
2023-05-05T13:39:00.869Z,7.85
2023-05-05T13:41:28.397Z,15.40
2023-05-05T13:43:56.596Z,7.93
2023-05-05T13:46:23.895Z,7.35
2023-05-05T13:48:56.074Z,11.93
2023-05-05T13:51:24.408Z,16.50
2023-05-05T13:53:53.224Z,10.18
2023-05-05T13:56:20.585Z,9.63
2023-05-05T13:58:47.767Z,9.15
2023-05-05T14:01:15.423Z,7.50
2023-05-05T14:03:42.744Z,14.10
2023-05-05T14:06:09.975Z,9.80
2023-05-05T14:08:37.384Z,12.25
2023-05-05T14:11:06.115Z,9.63
2023-05-05T14:13:33.387Z,7.17
2023-05-05T14:16:00.647Z,8.40
2023-05-05T14:18:28.517Z,6.60
2023-05-05T14:20:56.316Z,12.45
2023-05-05T14:23:24.040Z,10.77
2023-05-05T14:25:51.292Z,9.20
2023-05-05T14:28:20.008Z,6.60
2023-05-05T14:30:47.274Z,10.07
2023-05-05T14:33:14.545Z,7.63
2023-05-05T14:35:41.763Z,12.02
2023-05-05T14:38:09.075Z,9.27
2023-05-05T14:40:36.424Z,10.02
2023-05-05T14:43:03.634Z,8.63
2023-05-05T14:45:32.702Z,8.30
2023-05-05T14:48:00.229Z,6.00
2023-05-05T14:50:27.501Z,9.73
2023-05-05T14:52:54.920Z,7.00
2023-05-05T14:55:22.510Z,7.53
2023-05-05T14:57:49.974Z,13.45
2023-05-05T15:00:17.750Z,5.82
2023-05-05T15:02:48.319Z,6.37
2023-05-05T15:05:15.847Z,6.13
2023-05-05T15:07:43.279Z,6.45
2023-05-05T15:10:11.253Z,6.95
2023-05-05T15:12:39.018Z,5.97
2023-05-05T15:15:08.868Z,6.33
2023-05-05T15:17:37.678Z,7.45
2023-05-05T15:20:07.786Z,6.68
2023-05-05T15:22:35.167Z,8.27
2023-05-05T15:25:02.428Z,7.60
2023-05-05T15:27:30.791Z,6.50
2023-05-05T15:29:58.152Z,7.13
2023-05-05T15:32:25.557Z,6.28
2023-05-05T15:34:52.748Z,7.05
2023-05-05T15:37:21.374Z,7.97
2023-05-05T15:39:48.602Z,12.07
2023-05-05T15:42:15.761Z,6.90
2023-05-05T15:44:42.941Z,9.50
2023-05-05T15:47:11.049Z,7.00
2023-05-05T15:49:38.346Z,9.15
2023-05-05T15:52:05.941Z,8.40
2023-05-05T15:54:34.532Z,6.75
2023-05-05T15:57:03.207Z,6.47
2023-05-05T15:59:30.537Z,7.43
2023-05-05T16:01:58.187Z,7.18
2023-05-05T16:04:25.619Z,6.60
2023-05-05T16:06:53.168Z,7.43
2023-05-05T16:09:20.372Z,7.20
2023-05-05T16:11:49.271Z,6.65
2023-05-05T16:14:16.710Z,6.03
2023-05-05T16:16:44.056Z,6.77
2023-05-05T16:19:11.472Z,9.77
2023-05-05T16:21:38.947Z,6.95
2023-05-05T16:24:06.979Z,8.25
2023-05-05T16:26:35.951Z,6.70
2023-05-05T16:29:04.788Z,7.63
2023-05-05T16:31:34.088Z,7.35
2023-05-05T16:34:01.417Z,7.18
2023-05-05T16:36:28.675Z,6.85
2023-05-05T16:38:56.562Z,7.20
2023-05-05T16:41:24.306Z,6.53
2023-05-05T16:43:51.591Z,7.03
2023-05-05T16:46:20.257Z,7.88
2023-05-05T16:48:47.857Z,7.22
2023-05-05T16:51:15.212Z,6.70
2023-05-05T16:53:42.501Z,6.50
2023-05-05T16:56:11.720Z,8.40
2023-05-05T16:58:39.598Z,7.53
2023-05-05T17:01:06.909Z,6.90
2023-05-05T17:03:36.032Z,8.38
2023-05-05T17:06:03.497Z,9.10
2023-05-05T17:08:30.827Z,9.32
2023-05-05T17:10:58.283Z,8.55
2023-05-05T17:13:25.715Z,7.68
2023-05-05T17:15:53.004Z,7.43
2023-05-05T17:18:23.041Z,8.90
2023-05-05T17:20:52.106Z,8.18
2023-05-05T17:23:21.339Z,11.80
2023-05-05T17:25:48.546Z,9.27
2023-05-05T17:28:17.298Z,7.75
2023-05-05T17:30:44.709Z,7.90
2023-05-05T17:33:11.976Z,7.68
2023-05-05T17:35:39.316Z,7.93
2023-05-05T17:38:07.974Z,7.95
2023-05-05T17:40:35.308Z,8.32
2023-05-05T17:43:02.525Z,9.50
2023-05-05T17:45:29.861Z,13.23
2023-05-05T17:47:57.283Z,7.70
2023-05-05T17:50:24.603Z,9.70
2023-05-05T17:52:53.553Z,11.55
2023-05-05T17:55:22.405Z,10.30
2023-05-05T17:57:49.811Z,11.43
2023-05-05T18:00:18.415Z,12.82
2023-05-05T18:02:46.078Z,10.90
2023-05-05T18:05:14.452Z,9.95
2023-05-05T18:07:41.762Z,9.73
2023-05-05T18:10:10.775Z,9.45
2023-05-05T18:12:39.498Z,10.70
2023-05-05T18:15:08.848Z,11.38
2023-05-05T18:17:36.671Z,13.75
2023-05-05T18:20:06.832Z,15.37
2023-05-05T18:22:34.406Z,14.40
2023-05-05T18:25:01.634Z,13.10
2023-05-05T18:27:29.387Z,13.02
2023-05-05T18:29:58.127Z,11.98
2023-05-05T18:32:25.445Z,11.03
2023-05-05T18:34:52.707Z,10.60
2023-05-05T18:37:19.949Z,10.32
2023-05-05T18:39:47.225Z,9.27
2023-05-05T18:42:14.528Z,9.65
2023-05-05T18:44:42.036Z,9.30
2023-05-05T18:47:10.799Z,9.18
2023-05-05T18:49:38.174Z,8.00
2023-05-05T18:52:05.604Z,8.57
2023-05-05T18:54:32.908Z,8.98
2023-05-05T18:57:00.130Z,9.10
2023-05-05T18:59:27.449Z,9.63
2023-05-05T19:01:55.000Z,8.18
2023-05-05T19:04:30.831Z,11.85
2023-05-05T19:06:58.844Z,13.00
2023-05-05T19:09:26.189Z,12.63
2023-05-05T19:11:53.609Z,13.43
2023-05-05T19:14:22.523Z,14.25
2023-05-05T19:16:50.032Z,13.75
2023-05-05T19:19:17.284Z,12.43
2023-05-05T19:21:45.966Z,11.80
2023-05-05T19:24:14.060Z,11.05
2023-05-05T19:26:41.475Z,11.00
2023-05-05T19:29:08.759Z,12.77
2023-05-05T19:31:36.511Z,10.13
2023-05-05T19:34:04.878Z,11.90
2023-05-05T19:36:33.591Z,10.77
2023-05-05T19:39:03.538Z,15.55
2023-05-05T19:41:31.237Z,12.13
2023-05-05T19:43:58.610Z,11.40
2023-05-05T19:46:26.968Z,10.30
2023-05-05T19:48:54.336Z,9.73
2023-05-05T19:51:21.881Z,10.05
2023-05-05T19:53:49.204Z,16.50
2023-05-05T19:56:17.897Z,20.80
2023-05-05T19:58:56.103Z,16.83
2023-05-05T20:01:24.101Z,16.25
2023-05-05T20:03:54.460Z,17.13
2023-05-05T20:06:22.034Z,16.63
2023-05-05T20:08:49.242Z,16.90
2023-05-05T20:11:18.353Z,18.70
2023-05-05T20:13:45.616Z,18.00
2023-05-05T20:16:12.868Z,18.60
2023-05-05T20:18:40.393Z,20.42
2023-05-05T20:21:07.750Z,19.20
2023-05-05T20:23:35.196Z,15.60
2023-05-05T20:26:02.628Z,12.25
2023-05-05T20:28:31.953Z,13.13
2023-05-05T20:31:00.784Z,14.88
2023-05-05T20:33:28.521Z,13.25
2023-05-05T20:35:55.817Z,10.83
2023-05-05T20:38:23.615Z,12.30
2023-05-05T20:40:52.282Z,10.63
2023-05-05T20:43:19.616Z,14.20
2023-05-05T20:45:48.341Z,11.40
2023-05-05T20:48:15.849Z,9.37
2023-05-05T20:50:43.530Z,9.45
2023-05-05T20:53:13.888Z,10.15
2023-05-05T20:55:41.286Z,7.97
2023-05-05T20:58:09.320Z,8.82
2023-05-05T21:00:36.737Z,9.67
2023-05-05T21:03:06.165Z,8.25
2023-05-05T21:05:33.639Z,10.18
2023-05-05T21:08:01.330Z,8.90
2023-05-05T21:10:29.149Z,10.18
2023-05-05T21:12:56.610Z,10.27
2023-05-05T21:15:24.048Z,9.95
2023-05-05T21:17:51.892Z,11.07
2023-05-05T21:20:21.046Z,11.27
2023-05-05T21:22:48.370Z,11.15
2023-05-05T21:25:17.320Z,10.57
2023-05-05T21:27:45.125Z,13.15
2023-05-05T21:30:13.100Z,10.02
2023-05-05T21:32:40.712Z,9.52
2023-05-05T21:35:09.278Z,9.07
2023-05-05T21:37:39.629Z,10.37
2023-05-05T21:40:11.342Z,10.88
2023-05-05T21:42:38.824Z,11.00
2023-05-05T21:45:06.953Z,9.80
2023-05-05T21:47:34.577Z,8.43
2023-05-05T21:50:02.121Z,9.03
2023-05-05T21:52:29.401Z,8.75
2023-05-05T21:54:58.104Z,9.38
2023-05-05T21:57:25.564Z,9.35
2023-05-05T21:59:52.792Z,11.70
2023-05-05T22:02:20.218Z,12.07
2023-05-05T22:04:50.640Z,10.68
2023-05-05T22:07:17.825Z,11.63
2023-05-05T22:09:46.086Z,10.48
2023-05-05T22:12:14.759Z,12.90
2023-05-05T22:14:42.032Z,13.03
2023-05-05T22:17:09.276Z,11.70
2023-05-05T22:19:36.505Z,11.13
2023-05-05T22:22:03.814Z,10.63
2023-05-05T22:24:31.273Z,11.18
2023-05-05T22:26:58.625Z,9.73
2023-05-05T22:29:27.573Z,10.48
2023-05-05T22:31:54.981Z,10.68
2023-05-05T22:34:22.328Z,10.52
2023-05-05T22:36:49.993Z,12.65
2023-05-05T22:39:18.734Z,15.33
2023-05-05T22:41:46.658Z,13.00
2023-05-05T22:44:14.000Z,13.20
2023-05-05T22:46:42.777Z,11.38
2023-05-05T22:49:10.396Z,12.75
2023-05-05T22:51:37.668Z,12.37
2023-05-05T22:54:05.146Z,13.23
2023-05-05T22:56:33.473Z,11.60
2023-05-05T22:59:00.807Z,9.95
2023-05-05T23:01:28.319Z,12.18
2023-05-05T23:03:57.139Z,10.57
2023-05-05T23:06:25.278Z,11.68
2023-05-05T23:08:52.889Z,11.77
2023-05-05T23:11:20.228Z,12.02
2023-05-05T23:13:47.593Z,11.73
2023-05-05T23:16:14.873Z,11.13
2023-05-05T23:18:42.201Z,11.98
2023-05-05T23:21:10.967Z,10.98
2023-05-05T23:23:38.220Z,11.73
2023-05-05T23:26:05.575Z,10.73
2023-05-05T23:28:33.350Z,12.50
2023-05-05T23:31:01.220Z,12.20
2023-05-05T23:33:28.658Z,11.27
2023-05-05T23:35:56.081Z,10.05
2023-05-05T23:38:24.804Z,10.88
2023-05-05T23:40:52.223Z,11.63
2023-05-05T23:43:19.422Z,11.73
2023-05-05T23:45:46.675Z,12.80
2023-05-05T23:48:14.142Z,11.55
2023-05-05T23:50:41.423Z,10.18
2023-05-05T23:53:09.169Z,10.90
2023-05-05T23:55:37.980Z,12.00
2023-05-05T23:58:05.336Z,10.93
